Time;durP1;ratioP1;P1;durP2;ratioP2;P2;SDS_P1;SDS_P2;PMS_P1;PMS_P2;Temp;Humidity;BMP_temperature;BMP_pressure;BME280_temperature;BME280_humidity;BME280_pressure;Samples;Min_cycle;Max_cycle;Signal;HPM_P1;HPM_P2
2022/03/16 00:00:27;;;;;;;5.80;4.90;;;3.30;99.90;;;;;;5079477;28;20162;-79
2022/03/16 00:02:53;;;;;;;6.20;4.97;;;3.30;99.90;;;;;;5061249;28;20206;-79
2022/03/16 00:05:18;;;;;;;5.43;4.67;;;3.20;99.90;;;;;;5061490;28;20186;-79
2022/03/16 00:07:45;;;;;;;7.10;4.93;;;3.20;99.90;;;;;;5081191;28;20181;-79
2022/03/16 00:10:11;;;;;;;8.93;5.47;;;3.20;99.90;;;;;;5079124;28;20186;-79
2022/03/16 00:12:38;;;;;;;9.00;5.40;;;3.20;99.90;;;;;;5079178;28;20217;-79
2022/03/16 00:15:04;;;;;;;7.70;4.63;;;3.20;99.90;;;;;;5079286;28;20179;-79
2022/03/16 00:17:30;;;;;;;12.07;5.60;;;3.20;99.90;;;;;;5060958;28;20663;-79
2022/03/16 00:19:56;;;;;;;9.40;5.50;;;3.10;99.90;;;;;;5079073;28;20183;-79
2022/03/16 00:22:21;;;;;;;7.27;5.07;;;3.10;99.90;;;;;;5079744;28;20185;-79
2022/03/16 00:24:47;;;;;;;6.50;4.63;;;3.00;99.90;;;;;;5078887;28;20179;-79
2022/03/16 00:27:13;;;;;;;7.57;4.87;;;3.00;99.90;;;;;;5061056;28;20179;-80
2022/03/16 00:29:38;;;;;;;6.83;5.50;;;3.00;99.90;;;;;;5079410;28;20214;-79
2022/03/16 00:32:04;;;;;;;8.77;5.40;;;3.00;99.90;;;;;;5079600;28;20667;-79
2022/03/16 00:34:31;;;;;;;7.10;5.07;;;2.90;99.90;;;;;;5079401;28;20274;-79
2022/03/16 00:36:56;;;;;;;7.80;5.17;;;2.90;99.90;;;;;;5061177;28;20640;-79
2022/03/16 00:39:22;;;;;;;9.20;4.90;;;2.90;99.90;;;;;;5079185;28;20182;-79
2022/03/16 00:41:48;;;;;;;5.87;4.83;;;2.90;99.90;;;;;;5060936;28;20167;-79
2022/03/16 00:44:13;;;;;;;8.97;6.43;;;2.90;99.90;;;;;;5061402;28;20198;-79
2022/03/16 00:46:39;;;;;;;8.93;6.20;;;2.80;99.90;;;;;;5079093;28;20191;-79
2022/03/16 00:49:05;;;;;;;7.60;5.60;;;2.80;99.90;;;;;;5061184;28;20666;-79
2022/03/16 00:51:30;;;;;;;8.70;6.20;;;2.80;99.90;;;;;;5060810;28;20247;-79
2022/03/16 00:53:56;;;;;;;7.87;6.03;;;2.80;99.90;;;;;;5078386;28;20221;-79
2022/03/16 00:56:21;;;;;;;7.17;5.30;;;2.70;99.90;;;;;;5079184;28;20171;-79
2022/03/16 00:58:47;;;;;;;6.63;5.03;;;2.60;99.90;;;;;;5079471;28;20170;-78
2022/03/16 01:01:13;;;;;;;9.33;5.50;;;2.60;99.90;;;;;;5079682;28;20693;-79
2022/03/16 01:03:40;;;;;;;7.73;5.90;;;2.50;99.90;;;;;;5060765;28;20664;-80
2022/03/16 01:06:06;;;;;;;9.60;6.23;;;2.50;99.90;;;;;;5079758;28;20171;-80
2022/03/16 01:08:32;;;;;;;7.80;5.57;;;2.50;99.90;;;;;;5080505;28;20171;-80
2022/03/16 01:10:57;;;;;;;11.97;6.83;;;2.50;99.90;;;;;;5067945;28;20182;-79
2022/03/16 01:13:23;;;;;;;10.60;7.53;;;2.50;99.90;;;;;;5069524;28;20207;-79
2022/03/16 01:15:49;;;;;;;8.17;6.27;;;2.40;99.90;;;;;;5084156;28;20172;-79
2022/03/16 01:18:15;;;;;;;9.23;6.40;;;2.40;99.90;;;;;;5061574;28;20167;-79
2022/03/16 01:20:41;;;;;;;9.20;6.50;;;2.40;99.90;;;;;;5062327;28;20179;-79
2022/03/16 01:23:07;;;;;;;8.03;6.33;;;2.40;99.90;;;;;;5080899;28;20680;-79
2022/03/16 01:25:32;;;;;;;11.60;6.87;;;2.40;99.90;;;;;;5064422;28;20185;-78
2022/03/16 01:27:58;;;;;;;7.73;6.37;;;2.30;99.90;;;;;;5082661;28;20182;-79
2022/03/16 01:30:23;;;;;;;8.50;6.20;;;2.30;99.90;;;;;;5061086;28;20171;-79
2022/03/16 01:32:49;;;;;;;9.27;7.30;;;2.30;99.90;;;;;;5060582;28;20206;-79
2022/03/16 01:35:15;;;;;;;10.43;7.10;;;2.30;99.90;;;;;;5065958;28;20231;-78
2022/03/16 01:37:43;;;;;;;9.80;7.07;;;2.20;99.90;;;;;;5075530;28;20178;-78
2022/03/16 01:40:09;;;;;;;11.10;7.57;;;2.20;99.90;;;;;;5093363;28;20189;-79
2022/03/16 01:42:35;;;;;;;9.73;6.90;;;2.20;99.90;;;;;;5093019;28;20194;-78
2022/03/16 01:45:01;;;;;;;8.63;7.00;;;2.20;99.90;;;;;;5083788;28;20171;-80
2022/03/16 01:47:27;;;;;;;9.93;7.67;;;2.20;99.90;;;;;;5077844;28;20194;-79
2022/03/16 01:49:55;;;;;;;8.13;7.23;;;2.20;99.90;;;;;;5077848;28;20262;-79
2022/03/16 01:52:30;;;;;;;8.57;6.97;;;2.20;99.90;;;;;;5078111;28;20292;-79
2022/03/16 01:54:57;;;;;;;12.13;7.00;;;2.20;99.90;;;;;;5077282;28;20690;-79
2022/03/16 01:57:24;;;;;;;9.90;7.73;;;2.20;99.90;;;;;;5077919;28;20305;-79
2022/03/16 01:59:49;;;;;;;8.70;6.80;;;2.20;99.90;;;;;;5078652;28;20177;-79
2022/03/16 02:02:16;;;;;;;10.20;7.33;;;2.20;99.90;;;;;;5078201;28;20694;-79
2022/03/16 02:04:42;;;;;;;8.27;7.00;;;2.20;99.90;;;;;;5078901;28;20206;-79
2022/03/16 02:07:08;;;;;;;10.40;7.23;;;2.10;99.90;;;;;;5076561;28;20202;-79
2022/03/16 02:09:34;;;;;;;10.60;7.30;;;2.10;99.90;;;;;;5059613;28;20183;-79
2022/03/16 02:12:00;;;;;;;11.20;8.37;;;2.10;99.90;;;;;;5078102;28;20183;-79
2022/03/16 02:14:26;;;;;;;10.00;7.67;;;2.00;99.90;;;;;;5078999;28;20216;-79
2022/03/16 02:16:51;;;;;;;9.87;7.60;;;2.10;99.90;;;;;;5072320;28;20175;-79
2022/03/16 02:19:17;;;;;;;10.57;8.10;;;2.00;99.90;;;;;;5073957;28;20183;-79
2022/03/16 02:21:46;;;;;;;12.13;7.80;;;2.00;99.90;;;;;;5083380;28;20207;-79
2022/03/16 02:24:12;;;;;;;11.73;7.77;;;2.00;99.90;;;;;;5059273;28;20237;-79
2022/03/16 02:26:39;;;;;;;13.07;8.13;;;2.00;99.90;;;;;;5077249;28;20628;-79
2022/03/16 02:29:05;;;;;;;10.60;7.53;;;2.00;99.90;;;;;;5059256;28;20179;-79
2022/03/16 02:31:31;;;;;;;10.00;7.90;;;2.00;99.90;;;;;;5077196;28;20190;-78
2022/03/16 02:33:57;;;;;;;11.50;8.37;;;1.90;99.90;;;;;;5076481;28;20287;-78
2022/03/16 02:36:22;;;;;;;10.67;7.33;;;1.90;99.90;;;;;;5076806;28;20178;-79
2022/03/16 02:38:48;;;;;;;12.63;8.90;;;1.90;99.90;;;;;;5077252;28;20171;-79
2022/03/16 02:41:13;;;;;;;10.43;7.73;;;1.90;99.90;;;;;;5058611;28;20171;-79
2022/03/16 02:43:39;;;;;;;14.03;9.83;;;1.90;99.90;;;;;;5076921;28;20199;-79
2022/03/16 02:46:05;;;;;;;12.40;8.43;;;1.80;99.90;;;;;;5076357;28;20183;-78
2022/03/16 02:48:31;;;;;;;9.73;8.23;;;1.80;99.90;;;;;;5059882;28;20630;-79
2022/03/16 02:50:57;;;;;;;10.07;7.87;;;1.80;99.90;;;;;;5058731;28;20210;-79
2022/03/16 02:53:23;;;;;;;13.30;8.83;;;1.80;99.90;;;;;;5076088;28;20710;-79
2022/03/16 02:55:49;;;;;;;11.63;7.93;;;1.80;99.90;;;;;;5076850;28;20163;-77
2022/03/16 02:58:15;;;;;;;14.73;9.07;;;1.80;99.90;;;;;;5077005;28;20171;-79
2022/03/16 03:00:42;;;;;;;13.47;9.00;;;1.80;99.90;;;;;;5059143;28;20171;-79
2022/03/16 03:03:07;;;;;;;10.63;8.23;;;1.80;99.90;;;;;;5059101;28;20200;-79
2022/03/16 03:05:33;;;;;;;10.90;8.30;;;1.80;99.90;;;;;;5058928;28;20171;-79
2022/03/16 03:07:59;;;;;;;12.43;9.07;;;1.80;99.90;;;;;;5076673;28;20266;-79
2022/03/16 03:10:26;;;;;;;12.73;9.17;;;1.80;99.90;;;;;;5077338;28;20171;-79
2022/03/16 03:12:52;;;;;;;13.27;9.20;;;1.80;99.90;;;;;;5060224;28;20699;-79
2022/03/16 03:15:18;;;;;;;11.87;9.30;;;1.80;99.90;;;;;;5063289;28;20180;-79
2022/03/16 03:17:43;;;;;;;12.60;9.13;;;1.80;99.90;;;;;;5078034;28;20233;-79
2022/03/16 03:20:10;;;;;;;12.27;8.73;;;1.80;99.90;;;;;;5095594;28;20178;-80
2022/03/16 03:22:36;;;;;;;12.83;9.03;;;1.80;99.90;;;;;;5083134;28;20569;-79
2022/03/16 03:25:02;;;;;;;11.30;8.60;;;1.80;99.90;;;;;;5100616;28;20202;-79
2022/03/16 03:27:30;;;;;;;12.97;9.07;;;1.80;99.90;;;;;;5100665;28;20182;-79
2022/03/16 03:29:56;;;;;;;11.27;9.03;;;1.80;99.90;;;;;;5081663;28;20184;-79
2022/03/16 03:32:21;;;;;;;12.60;9.20;;;1.80;99.90;;;;;;5099998;28;20229;-79
2022/03/16 03:34:50;;;;;;;13.33;9.33;;;1.80;99.90;;;;;;5100369;28;20223;-79
2022/03/16 03:37:15;;;;;;;13.07;9.57;;;1.80;99.90;;;;;;5081614;28;20166;-80
2022/03/16 03:39:42;;;;;;;13.80;9.50;;;1.70;99.90;;;;;;5100341;28;20587;-79
2022/03/16 03:42:08;;;;;;;12.00;9.30;;;1.70;99.90;;;;;;5081702;28;20178;-79
2022/03/16 03:44:37;;;;;;;12.57;9.00;;;1.70;99.90;;;;;;5081552;28;20193;-78
2022/03/16 03:47:04;;;;;;;13.53;9.33;;;1.70;99.90;;;;;;5081195;28;20277;-79
2022/03/16 03:49:30;;;;;;;11.73;9.00;;;1.70;99.90;;;;;;5100205;28;20174;-79
2022/03/16 03:51:56;;;;;;;12.00;9.13;;;1.70;99.90;;;;;;5081485;28;20189;-79
2022/03/16 03:54:21;;;;;;;15.83;10.40;;;1.70;99.90;;;;;;5082020;28;20248;-79
2022/03/16 03:56:47;;;;;;;12.27;8.73;;;1.70;99.90;;;;;;5099957;28;20170;-79
2022/03/16 03:59:12;;;;;;;14.03;9.87;;;1.70;99.90;;;;;;5082167;28;20177;-80
2022/03/16 04:01:38;;;;;;;13.83;9.40;;;1.70;99.90;;;;;;5082022;28;20220;-79
2022/03/16 04:04:03;;;;;;;14.83;10.50;;;1.70;99.90;;;;;;5100197;28;20728;-79
2022/03/16 04:06:29;;;;;;;12.70;9.90;;;1.70;99.90;;;;;;5073177;28;20234;-79
2022/03/16 04:08:55;;;;;;;14.53;9.97;;;1.70;99.90;;;;;;5089009;28;20645;-79
2022/03/16 04:11:20;;;;;;;12.87;9.47;;;1.60;99.90;;;;;;5088048;28;20277;-79
2022/03/16 04:13:46;;;;;;;12.97;9.63;;;1.60;99.90;;;;;;5088375;28;20259;-79
2022/03/16 04:16:11;;;;;;;13.67;8.87;;;1.60;99.90;;;;;;5090051;28;20257;-79
2022/03/16 04:18:37;;;;;;;12.10;9.17;;;1.60;99.90;;;;;;5092535;28;20244;-80
2022/03/16 04:21:02;;;;;;;15.23;9.93;;;1.60;99.90;;;;;;5079789;28;20189;-80
2022/03/16 04:23:28;;;;;;;17.17;8.80;;;1.60;99.90;;;;;;5081937;28;20220;-80
2022/03/16 04:25:53;;;;;;;12.10;8.87;;;1.60;99.90;;;;;;5100767;28;20177;-79
2022/03/16 04:28:19;;;;;;;11.43;8.83;;;1.50;99.90;;;;;;5081833;28;20596;-80
2022/03/16 04:30:44;;;;;;;13.13;9.33;;;1.50;99.90;;;;;;5103351;28;20184;-79
2022/03/16 04:33:10;;;;;;;11.50;8.67;;;1.50;99.90;;;;;;5089431;28;20202;-79
2022/03/16 04:35:35;;;;;;;10.83;8.40;;;1.60;99.90;;;;;;5105536;28;20233;-79
2022/03/16 04:38:01;;;;;;;13.47;8.23;;;1.60;99.90;;;;;;5080821;28;20178;-79
2022/03/16 04:40:27;;;;;;;12.10;8.83;;;1.50;99.90;;;;;;5080571;28;20167;-79
2022/03/16 04:42:52;;;;;;;11.37;8.53;;;1.60;99.90;;;;;;5098612;28;20194;-79
2022/03/16 04:45:18;;;;;;;10.90;8.37;;;1.60;99.90;;;;;;5081277;28;20170;-79
2022/03/16 04:47:43;;;;;;;12.97;9.50;;;1.50;99.90;;;;;;5098510;28;20184;-79
2022/03/16 04:50:09;;;;;;;12.50;8.20;;;1.60;99.90;;;;;;5081022;28;20638;-79
2022/03/16 04:52:43;;;;;;;11.90;8.70;;;1.50;99.90;;;;;;5099298;28;20201;-78
2022/03/16 04:55:09;;;;;;;10.77;8.20;;;1.60;99.90;;;;;;5082798;28;20177;-79
2022/03/16 04:57:34;;;;;;;14.83;9.33;;;1.60;99.90;;;;;;5100854;28;20174;-79
2022/03/16 05:00:00;;;;;;;13.97;9.10;;;1.60;99.90;;;;;;5101142;28;20184;-79
2022/03/16 05:02:25;;;;;;;12.97;9.57;;;1.60;99.90;;;;;;5087730;28;20196;-79
2022/03/16 05:04:51;;;;;;;13.50;8.97;;;1.60;99.90;;;;;;5098690;28;20174;-79
2022/03/16 05:07:16;;;;;;;11.37;8.23;;;1.60;99.90;;;;;;5098314;28;20207;-79
2022/03/16 05:09:42;;;;;;;10.00;8.40;;;1.50;99.90;;;;;;5080333;28;20182;-79
2022/03/16 05:12:08;;;;;;;17.33;8.43;;;1.50;99.90;;;;;;5098393;28;20564;-79
2022/03/16 05:14:33;;;;;;;12.20;8.63;;;1.50;99.90;;;;;;5098315;28;20213;-79
2022/03/16 05:16:59;;;;;;;12.37;7.17;;;1.50;99.90;;;;;;5099028;28;20166;-79
2022/03/16 05:19:26;;;;;;;11.27;8.27;;;1.50;99.90;;;;;;5098517;28;20170;-78
2022/03/16 05:21:51;;;;;;;10.80;8.13;;;1.50;99.90;;;;;;5097812;28;20244;-79
2022/03/16 05:24:20;;;;;;;10.23;7.63;;;1.50;99.90;;;;;;5098241;28;20198;-79
2022/03/16 05:26:45;;;;;;;12.57;7.53;;;1.40;99.90;;;;;;5098674;28;20219;-79
2022/03/16 05:29:11;;;;;;;12.77;8.47;;;1.50;99.90;;;;;;5080056;28;20702;-79
2022/03/16 05:31:37;;;;;;;12.33;9.13;;;1.50;99.90;;;;;;5097951;28;20197;-78
2022/03/16 05:34:02;;;;;;;12.40;8.10;;;1.40;99.90;;;;;;5097648;28;20275;-78
2022/03/16 05:36:28;;;;;;;13.53;8.07;;;1.40;99.90;;;;;;5097937;28;20200;-78
2022/03/16 05:38:53;;;;;;;11.47;7.90;;;1.40;99.90;;;;;;5097558;28;20173;-78
2022/03/16 05:41:19;;;;;;;11.97;8.43;;;1.40;99.90;;;;;;5097388;28;20182;-79
2022/03/16 05:43:44;;;;;;;12.10;8.50;;;1.30;99.90;;;;;;5098524;28;20235;-78
2022/03/16 05:46:10;;;;;;;9.93;7.87;;;1.30;99.90;;;;;;5097830;28;20193;-79
2022/03/16 05:48:36;;;;;;;12.10;7.70;;;1.30;99.90;;;;;;5080180;28;20182;-79
2022/03/16 05:51:01;;;;;;;10.13;7.40;;;1.30;99.90;;;;;;5080047;28;20666;-79
2022/03/16 05:53:27;;;;;;;11.70;7.93;;;1.30;99.90;;;;;;5079947;28;20214;-79
2022/03/16 05:55:52;;;;;;;12.20;8.03;;;1.30;99.90;;;;;;5080007;28;20170;-76
2022/03/16 05:58:18;;;;;;;11.13;8.17;;;1.30;99.90;;;;;;5097792;28;20683;-79
2022/03/16 06:00:43;;;;;;;11.73;7.50;;;1.30;99.90;;;;;;5098027;28;20177;-79
2022/03/16 06:03:11;;;;;;;11.57;8.23;;;1.30;99.90;;;;;;5097202;28;20240;-78
2022/03/16 06:05:37;;;;;;;10.63;8.00;;;1.30;99.90;;;;;;5097606;28;20167;-79
2022/03/16 06:08:02;;;;;;;12.30;8.10;;;1.30;99.90;;;;;;5097364;28;20181;-78
2022/03/16 06:10:28;;;;;;;15.10;8.17;;;1.30;99.90;;;;;;5079478;28;20181;-79
2022/03/16 06:13:05;;;;;;;11.20;8.03;;;1.40;99.90;;;;;;5096877;28;20232;-78
2022/03/16 06:15:39;;;;;;;13.40;8.60;;;1.40;99.90;;;;;;5097116;28;20571;-78
2022/03/16 06:18:04;;;;;;;14.60;8.13;;;1.40;99.90;;;;;;5097430;28;20176;-79
2022/03/16 06:20:31;;;;;;;13.53;8.47;;;1.40;99.90;;;;;;5078889;28;20699;-78
2022/03/16 06:22:57;;;;;;;10.23;7.57;;;1.40;99.90;;;;;;5091909;28;20686;-78
2022/03/16 06:25:25;;;;;;;14.07;8.20;;;1.40;99.90;;;;;;5060767;28;20179;-79
2022/03/16 06:27:51;;;;;;;12.03;8.67;;;1.40;99.90;;;;;;5081916;28;20537;-79
2022/03/16 06:30:17;;;;;;;13.93;9.07;;;1.50;99.90;;;;;;5079001;28;20178;-79
2022/03/16 06:32:45;;;;;;;12.67;8.53;;;1.50;99.90;;;;;;5096417;28;20276;-76
2022/03/16 06:35:10;;;;;;;11.87;8.73;;;1.50;99.90;;;;;;5078339;28;20176;-79
2022/03/16 06:37:36;;;;;;;13.23;8.57;;;1.50;99.90;;;;;;5096818;28;20246;-78
2022/03/16 06:40:02;;;;;;;11.93;9.10;;;1.60;99.90;;;;;;5092405;28;20170;-79
2022/03/16 06:42:27;;;;;;;14.47;8.50;;;1.60;99.90;;;;;;5059148;28;20543;-79
2022/03/16 06:44:53;;;;;;;13.87;9.17;;;1.70;99.90;;;;;;5077266;28;20187;-79
2022/03/16 06:47:19;;;;;;;12.73;8.90;;;1.60;99.90;;;;;;5077600;28;20236;-77
2022/03/16 06:49:45;;;;;;;12.60;9.00;;;1.60;99.90;;;;;;5079050;28;20175;-76
2022/03/16 06:52:11;;;;;;;15.93;8.47;;;1.70;99.90;;;;;;5077345;28;20632;-78
2022/03/16 06:54:37;;;;;;;13.37;9.10;;;1.80;99.90;;;;;;5080465;28;20202;-78
2022/03/16 06:57:02;;;;;;;26.93;18.27;;;1.80;99.90;;;;;;5062218;28;20182;-78
2022/03/16 06:59:28;;;;;;;16.70;10.93;;;1.90;99.90;;;;;;5079763;28;20605;-78
2022/03/16 07:01:53;;;;;;;18.30;11.00;;;2.00;99.90;;;;;;5079399;28;20181;-78
2022/03/16 07:04:19;;;;;;;13.77;9.83;;;2.10;99.90;;;;;;5079247;28;20190;-78
2022/03/16 07:06:44;;;;;;;16.27;9.60;;;2.10;99.90;;;;;;5061276;28;20518;-79
2022/03/16 07:09:10;;;;;;;13.23;10.17;;;2.20;99.90;;;;;;5079208;28;20247;-78
2022/03/16 07:11:35;;;;;;;15.07;9.27;;;2.30;99.90;;;;;;5079375;28;20316;-77
2022/03/16 07:16:45;;;;;;;13.70;9.80;;;2.40;99.90;;;;;;5086266;28;20193;-78
2022/03/16 07:19:11;;;;;;;16.90;10.57;;;2.50;99.90;;;;;;5100316;28;20167;-78
2022/03/16 07:21:37;;;;;;;15.77;9.90;;;2.60;99.90;;;;;;5099892;28;20632;-78
2022/03/16 07:24:04;;;;;;;20.77;11.87;;;2.70;99.90;;;;;;5100760;28;20209;-78
2022/03/16 07:26:29;;;;;;;18.43;11.90;;;2.80;99.90;;;;;;5085787;28;20198;-77
2022/03/16 07:28:56;;;;;;;22.67;13.37;;;2.90;99.90;;;;;;5092304;28;20174;-78
2022/03/16 07:31:21;;;;;;;21.83;13.73;;;3.00;99.90;;;;;;5091255;28;20174;-79
2022/03/16 07:33:47;;;;;;;28.07;15.43;;;3.30;99.90;;;;;;5090613;28;20236;-78
2022/03/16 07:36:12;;;;;;;25.40;15.23;;;3.40;99.90;;;;;;5083667;28;20186;-78
2022/03/16 07:38:38;;;;;;;31.30;15.93;;;3.70;99.90;;;;;;5079483;28;20171;-78
2022/03/16 07:41:05;;;;;;;27.90;16.57;;;3.90;99.90;;;;;;5079703;28;20179;-77
2022/03/16 07:43:31;;;;;;;26.33;16.60;;;4.10;99.90;;;;;;5061014;28;20194;-77
2022/03/16 07:45:56;;;;;;;29.67;17.17;;;4.40;99.90;;;;;;5066108;28;20185;-75
2022/03/16 07:48:22;;;;;;;31.63;17.97;;;4.60;99.90;;;;;;5087584;28;20167;-78
2022/03/16 07:50:49;;;;;;;34.63;18.73;;;4.80;99.90;;;;;;5084445;28;20553;-78
2022/03/16 07:53:15;;;;;;;32.17;19.00;;;5.00;99.90;;;;;;5060695;28;20699;-78
2022/03/16 07:55:40;;;;;;;33.50;18.30;;;5.10;99.90;;;;;;5060803;28;20186;-78
2022/03/16 07:58:06;;;;;;;30.77;16.90;;;5.30;99.90;;;;;;5081009;28;20175;-74
2022/03/16 08:00:31;;;;;;;27.33;16.77;;;5.50;99.90;;;;;;5064242;28;20271;-77
2022/03/16 08:03:01;;;;;;;23.97;15.77;;;5.70;99.90;;;;;;5086663;28;20209;-77
2022/03/16 08:05:27;;;;;;;24.87;15.57;;;5.80;99.90;;;;;;5087029;28;20167;-77
2022/03/16 08:07:53;;;;;;;21.40;14.43;;;6.00;99.90;;;;;;5081325;28;20181;-77
2022/03/16 08:10:19;;;;;;;19.93;13.53;;;6.20;99.90;;;;;;5089748;28;20194;-77
2022/03/16 08:12:45;;;;;;;16.27;11.43;;;6.30;99.90;;;;;;5087820;28;20209;-78
2022/03/16 08:15:11;;;;;;;15.07;10.97;;;6.50;99.90;;;;;;5083695;28;20202;-78
2022/03/16 08:17:36;;;;;;;13.07;10.53;;;6.60;99.90;;;;;;5085199;28;20171;-78
2022/03/16 08:20:02;;;;;;;12.60;10.33;;;6.70;99.90;;;;;;5085587;28;20171;-78
2022/03/16 08:22:32;;;;;;;12.97;9.97;;;6.90;99.90;;;;;;5086198;28;20226;-79
2022/03/16 08:25:00;;;;;;;11.57;9.23;;;7.10;99.90;;;;;;5067499;28;20179;-78
2022/03/16 08:27:26;;;;;;;11.53;9.70;;;7.20;99.90;;;;;;5067463;28;20179;-78
2022/03/16 08:29:53;;;;;;;13.57;9.97;;;7.30;99.90;;;;;;5086282;28;20209;-78
2022/03/16 08:32:19;;;;;;;11.97;9.30;;;7.50;99.90;;;;;;5085998;28;20551;-79
2022/03/16 08:34:45;;;;;;;10.30;8.63;;;7.60;99.90;;;;;;5084185;28;20163;-79
2022/03/16 08:37:11;;;;;;;11.97;9.87;;;7.80;99.90;;;;;;5067005;28;20167;-78
2022/03/16 08:39:38;;;;;;;11.03;7.60;;;7.90;99.90;;;;;;5063440;28;20182;-78
2022/03/16 08:42:05;;;;;;;10.17;8.10;;;8.00;99.90;;;;;;5079553;28;20253;-79
2022/03/16 08:44:31;;;;;;;11.67;8.40;;;8.00;99.90;;;;;;5079235;28;20268;-79
2022/03/16 08:46:58;;;;;;;12.73;8.63;;;8.00;99.90;;;;;;5084018;28;20205;-78
2022/03/16 08:49:23;;;;;;;9.93;7.73;;;8.30;99.90;;;;;;5084105;28;20186;-79
2022/03/16 08:51:49;;;;;;;9.97;8.13;;;8.40;99.90;;;;;;5064567;28;20179;-79
2022/03/16 08:54:14;;;;;;;9.93;8.13;;;8.50;99.90;;;;;;5078738;28;20251;-79
2022/03/16 08:56:40;;;;;;;10.20;8.07;;;8.60;99.90;;;;;;5079512;28;20166;-80
2022/03/16 08:59:06;;;;;;;10.87;7.83;;;8.70;99.90;;;;;;5078739;28;20587;-79
2022/03/16 09:01:31;;;;;;;11.10;8.17;;;8.80;99.90;;;;;;5060601;28;20177;-79
2022/03/16 09:03:57;;;;;;;9.30;7.83;;;9.00;99.90;;;;;;5078658;28;20190;-78
2022/03/16 09:06:23;;;;;;;10.43;7.67;;;9.00;99.90;;;;;;5078193;28;20175;-79
2022/03/16 09:08:48;;;;;;;10.27;7.10;;;9.10;99.90;;;;;;5078068;28;20219;-79
2022/03/16 09:11:14;;;;;;;8.77;7.47;;;9.10;99.90;;;;;;5078435;28;20171;-79
2022/03/16 09:13:40;;;;;;;9.50;7.27;;;9.20;99.90;;;;;;5061015;28;20630;-78
2022/03/16 09:16:06;;;;;;;8.97;7.50;;;9.20;99.90;;;;;;5078572;28;20197;-78
2022/03/16 09:18:32;;;;;;;10.00;7.83;;;9.30;99.90;;;;;;5079210;28;20178;-79
2022/03/16 09:21:00;;;;;;;9.83;7.97;;;9.40;99.90;;;;;;5060377;28;20178;-78
2022/03/16 09:23:31;;;;;;;9.47;7.73;;;9.50;99.90;;;;;;5060086;28;20266;-79
2022/03/16 09:25:57;;;;;;;10.33;7.70;;;9.50;99.90;;;;;;5078710;28;20151;-76
2022/03/16 09:28:23;;;;;;;9.20;7.43;;;9.60;99.90;;;;;;5078446;28;20186;-79
2022/03/16 09:30:49;;;;;;;9.20;7.10;;;9.60;99.90;;;;;;5060498;28;20179;-79
2022/03/16 09:33:15;;;;;;;8.47;6.97;;;9.70;99.90;;;;;;5077411;28;20206;-79
2022/03/16 09:35:40;;;;;;;8.63;7.40;;;9.80;99.90;;;;;;5059656;28;20555;-79
2022/03/16 09:38:06;;;;;;;10.93;7.17;;;9.80;99.90;;;;;;5077929;28;20175;-79
2022/03/16 09:40:34;;;;;;;9.50;7.80;;;9.90;99.90;;;;;;5060401;28;20375;-79
2022/03/16 09:43:01;;;;;;;8.10;6.80;;;9.90;99.90;;;;;;5059979;28;20290;-79
2022/03/16 09:45:30;;;;;;;8.77;7.87;;;10.00;99.90;;;;;;5077644;28;20175;-78
2022/03/16 09:47:56;;;;;;;9.60;7.53;;;10.00;99.90;;;;;;5077617;28;20217;-79
2022/03/16 09:50:22;;;;;;;8.47;7.03;;;10.10;99.90;;;;;;5077987;28;20178;-78
2022/03/16 09:52:48;;;;;;;8.57;7.27;;;10.20;99.90;;;;;;5077486;28;20264;-79
2022/03/16 09:55:17;;;;;;;9.03;7.10;;;10.30;99.90;;;;;;5059629;28;20258;-79
2022/03/16 09:57:43;;;;;;;8.10;6.40;;;10.30;99.90;;;;;;5058932;28;20179;-79
2022/03/16 10:00:13;;;;;;;7.33;6.50;;;10.40;99.90;;;;;;5077665;28;20175;-78
2022/03/16 10:02:39;;;;;;;7.40;6.20;;;10.40;99.90;;;;;;5077865;28;20203;-78
2022/03/16 10:05:09;;;;;;;7.97;6.57;;;10.50;99.90;;;;;;5077970;28;20183;-79
2022/03/16 10:07:36;;;;;;;8.30;6.53;;;10.60;99.90;;;;;;5077637;28;20182;-78
2022/03/16 10:15:33;;;;;;;8.00;6.37;;;10.80;99.90;;;;;;5078240;28;20166;-80
2022/03/16 10:18:02;;;;;;;7.03;6.00;;;10.90;99.90;;;;;;5059980;28;20171;-80
2022/03/16 10:20:30;;;;;;;7.87;6.07;;;11.00;99.90;;;;;;5060520;28;20632;-80
2022/03/16 10:23:01;;;;;;;7.03;6.17;;;11.00;99.90;;;;;;5079926;28;20222;-80
2022/03/16 10:25:29;;;;;;;7.17;5.87;;;11.10;99.90;;;;;;5084138;28;20231;-79
2022/03/16 10:28:16;;;;;;;8.77;6.03;;;11.20;99.90;;;;;;5060826;28;20178;-80
2022/03/16 10:30:52;;;;;;;7.13;6.23;;;11.30;99.90;;;;;;5077533;28;20531;-80
2022/03/16 10:33:19;;;;;;;6.83;5.60;;;11.30;99.90;;;;;;5077492;28;20284;-80
2022/03/16 10:36:08;;;;;;;7.30;5.40;;;11.40;99.90;;;;;;5077079;28;20177;-78
2022/03/16 10:38:40;;;;;;;6.63;5.33;;;11.50;99.90;;;;;;5077392;28;20223;-80
2022/03/16 10:46:46;;;;;;;6.63;5.13;;;11.70;99.90;;;;;;5078059;28;20678;-80
2022/03/16 10:49:16;;;;;;;5.87;5.27;;;11.60;99.90;;;;;;5060248;28;20174;-80
2022/03/16 10:51:43;;;;;;;6.53;5.80;;;11.80;99.90;;;;;;5078419;28;20170;-80
2022/03/16 10:54:08;;;;;;;6.53;5.40;;;11.80;99.90;;;;;;5061990;28;20293;-78
2022/03/16 10:56:39;;;;;;;6.70;4.80;;;12.00;99.90;;;;;;5088346;28;20178;-78
2022/03/16 10:59:04;;;;;;;6.70;5.27;;;12.00;99.90;;;;;;5068982;28;20186;-80
2022/03/16 11:01:33;;;;;;;5.63;4.83;;;12.00;99.90;;;;;;5078483;28;20163;-80
2022/03/16 11:03:59;;;;;;;6.63;5.30;;;12.10;99.90;;;;;;5076260;28;20190;-79
2022/03/16 11:06:25;;;;;;;5.47;4.93;;;12.20;99.90;;;;;;5058580;28;20224;-79
2022/03/16 11:08:51;;;;;;;5.60;5.10;;;12.20;99.90;;;;;;5076637;28;20175;-80
2022/03/16 11:14:03;;;;;;;5.80;4.80;;;12.30;99.90;;;;;;5076095;28;20248;-80
2022/03/16 11:16:33;;;;;;;5.27;4.77;;;12.30;99.90;;;;;;5076392;28;20221;-80
2022/03/16 11:19:01;;;;;;;5.50;4.27;;;12.50;99.90;;;;;;5076026;28;20654;-79
2022/03/16 11:21:50;;;;;;;5.60;4.67;;;12.50;99.90;;;;;;5057957;28;20178;-80
2022/03/16 11:24:22;;;;;;;7.30;4.77;;;12.50;99.90;;;;;;5061520;28;20222;-80
2022/03/16 11:27:10;;;;;;;5.00;4.50;;;12.70;99.90;;;;;;5075632;28;20213;-80
2022/03/16 11:30:01;;;;;;;4.63;4.23;;;12.80;99.90;;;;;;5057822;28;20202;-80
2022/03/16 11:32:34;;;;;;;4.90;4.30;;;12.90;99.90;;;;;;5057440;28;20262;-80
2022/03/16 11:35:00;;;;;;;4.97;4.30;;;12.80;99.90;;;;;;5059067;28;20163;-80
2022/03/16 11:37:43;;;;;;;8.00;5.07;;;13.00;99.90;;;;;;5076643;28;20175;-80
2022/03/16 11:40:23;;;;;;;4.87;4.37;;;13.10;99.90;;;;;;5062032;28;20163;-80
2022/03/16 11:43:04;;;;;;;4.43;4.03;;;13.10;99.90;;;;;;5080867;28;20191;-80
2022/03/16 11:45:34;;;;;;;4.80;4.13;;;13.30;99.90;;;;;;5080536;28;20692;-80
2022/03/16 11:48:20;;;;;;;4.50;3.30;;;13.30;99.90;;;;;;5062096;28;20186;-80
2022/03/16 11:51:08;;;;;;;3.80;3.40;;;13.30;99.90;;;;;;5081188;28;20224;-80
2022/03/16 11:53:51;;;;;;;4.53;3.77;;;13.40;99.90;;;;;;5080156;28;20213;-78
2022/03/16 11:56:23;;;;;;;3.70;3.30;;;13.30;99.90;;;;;;5080333;28;20170;-80
2022/03/16 11:58:53;;;;;;;4.03;3.37;;;13.30;99.90;;;;;;5080211;28;20640;-81
2022/03/16 12:01:29;;;;;;;3.53;3.23;;;13.40;99.90;;;;;;5080280;28;20617;-80
2022/03/16 12:04:08;;;;;;;3.97;3.07;;;13.50;99.90;;;;;;5061247;28;20243;-80
2022/03/16 12:07:14;;;;;;;4.93;3.60;;;13.60;99.90;;;;;;5080480;28;20152;-80
2022/03/16 12:09:44;;;;;;;3.80;3.37;;;13.70;99.90;;;;;;5062667;28;20171;-81
2022/03/16 12:15:12;;;;;;;4.23;3.83;;;13.90;99.90;;;;;;5080043;28;20562;-80
2022/03/16 12:18:01;;;;;;;4.17;3.77;;;14.00;99.90;;;;;;5079384;28;20193;-80
2022/03/16 12:20:37;;;;;;;4.90;3.20;;;14.10;99.90;;;;;;5068192;28;20210;-80
2022/03/16 12:23:10;;;;;;;3.60;3.27;;;14.10;99.90;;;;;;5060864;28;20195;-80
2022/03/16 12:25:37;;;;;;;4.33;3.93;;;14.20;99.90;;;;;;5079220;28;20160;-80
2022/03/16 12:31:34;;;;;;;3.40;3.03;;;14.30;99.90;;;;;;5038033;28;20246;-80
2022/03/16 12:34:00;;;;;;;5.93;3.70;;;14.30;99.90;;;;;;5037148;28;20238;-80
2022/03/16 12:36:31;;;;;;;4.20;3.60;;;14.40;99.90;;;;;;5039999;28;20179;-81
2022/03/16 12:39:08;;;;;;;7.47;3.33;;;14.50;99.90;;;;;;5061746;28;20163;-80
2022/03/16 12:44:21;;;;;;;4.07;3.67;;;14.60;99.90;;;;;;5079761;28;20330;-80
2022/03/16 12:47:16;;;;;;;4.30;3.90;;;14.60;99.90;;;;;;5079131;28;20187;-80
2022/03/16 12:49:43;;;;;;;4.63;3.70;;;14.60;99.90;;;;;;5060319;28;20167;-80
2022/03/16 12:52:09;;;;;;;4.50;4.10;;;14.60;99.90;;;;;;5078373;28;20224;-80
2022/03/16 12:54:36;;;;;;;3.80;3.13;;;14.60;99.90;;;;;;5078935;28;20223;-81
2022/03/16 12:57:15;;;;;;;3.23;2.93;;;14.70;99.90;;;;;;5060339;28;20167;-80
2022/03/16 12:59:48;;;;;;;4.03;3.50;;;14.70;99.90;;;;;;5079538;28;20216;-81
2022/03/16 13:02:22;;;;;;;4.00;3.60;;;14.70;99.90;;;;;;5078203;28;20617;-80
2022/03/16 13:04:54;;;;;;;4.10;3.27;;;14.70;99.90;;;;;;5077973;28;20553;-80
2022/03/16 13:07:21;;;;;;;3.83;3.43;;;14.80;99.90;;;;;;5078955;28;20152;-80
2022/03/16 13:09:47;;;;;;;7.73;3.17;;;14.90;99.90;;;;;;5078054;28;20183;-80
2022/03/16 13:12:16;;;;;;;3.90;3.20;;;14.90;99.90;;;;;;5060232;28;20607;-81
2022/03/16 13:14:46;;;;;;;4.00;3.47;;;14.90;99.90;;;;;;5061529;28;20283;-80